sensor_id;sensor_type;location;lat;lon;timestamp;temperature;humidity
23087;DHT22;11712;51.134;4.156;2022-10-31T00:01:19;13.80;99.90
23087;DHT22;11712;51.134;4.156;2022-10-31T00:03:45;13.90;99.90
23087;DHT22;11712;51.134;4.156;2022-10-31T00:06:11;14.00;99.90
23087;DHT22;11712;51.134;4.156;2022-10-31T00:08:37;14.10;99.90
23087;DHT22;11712;51.134;4.156;2022-10-31T00:11:03;14.00;99.90
23087;DHT22;11712;51.134;4.156;2022-10-31T00:13:28;14.00;99.90
23087;DHT22;11712;51.134;4.156;2022-10-31T00:15:54;14.00;99.90
23087;DHT22;11712;51.134;4.156;2022-10-31T00:18:20;14.00;99.90
23087;DHT22;11712;51.134;4.156;2022-10-31T00:20:45;13.80;99.90
23087;DHT22;11712;51.134;4.156;2022-10-31T00:23:11;13.90;99.90
23087;DHT22;11712;51.134;4.156;2022-10-31T00:25:38;13.90;99.90
23087;DHT22;11712;51.134;4.156;2022-10-31T00:28:06;14.20;99.90
23087;DHT22;11712;51.134;4.156;2022-10-31T00:30:32;13.90;99.90
23087;DHT22;11712;51.134;4.156;2022-10-31T00:32:58;14.00;99.90
23087;DHT22;11712;51.134;4.156;2022-10-31T00:35:23;13.90;99.90
23087;DHT22;11712;51.134;4.156;2022-10-31T00:37:49;13.90;99.90
23087;DHT22;11712;51.134;4.156;2022-10-31T00:40:15;13.90;99.90
23087;DHT22;11712;51.134;4.156;2022-10-31T00:42:41;13.90;99.90
23087;DHT22;11712;51.134;4.156;2022-10-31T00:45:10;13.80;99.90
23087;DHT22;11712;51.134;4.156;2022-10-31T00:47:36;13.80;99.90
23087;DHT22;11712;51.134;4.156;2022-10-31T00:50:04;13.60;99.90
23087;DHT22;11712;51.134;4.156;2022-10-31T00:52:30;13.40;99.90
23087;DHT22;11712;51.134;4.156;2022-10-31T00:54:55;13.30;99.90
23087;DHT22;11712;51.134;4.156;2022-10-31T00:57:21;13.40;99.90
23087;DHT22;11712;51.134;4.156;2022-10-31T00:59:46;13.50;99.90
23087;DHT22;11712;51.134;4.156;2022-10-31T01:02:12;13.50;99.90
23087;DHT22;11712;51.134;4.156;2022-10-31T01:04:38;13.50;99.90
23087;DHT22;11712;51.134;4.156;2022-10-31T01:07:03;13.40;99.90
23087;DHT22;11712;51.134;4.156;2022-10-31T01:09:29;13.40;99.90
23087;DHT22;11712;51.134;4.156;2022-10-31T01:11:54;13.40;99.90
23087;DHT22;11712;51.134;4.156;2022-10-31T01:14:20;13.50;99.90
23087;DHT22;11712;51.134;4.156;2022-10-31T01:16:46;13.50;99.90
23087;DHT22;11712;51.134;4.156;2022-10-31T01:19:11;13.60;99.90
23087;DHT22;11712;51.134;4.156;2022-10-31T01:21:37;13.60;99.90
23087;DHT22;11712;51.134;4.156;2022-10-31T01:24:03;13.60;99.90
23087;DHT22;11712;51.134;4.156;2022-10-31T01:26:30;13.60;99.90
23087;DHT22;11712;51.134;4.156;2022-10-31T01:29:03;13.50;99.90
23087;DHT22;11712;51.134;4.156;2022-10-31T01:31:31;13.50;99.90
23087;DHT22;11712;51.134;4.156;2022-10-31T01:33:58;13.50;99.90
23087;DHT22;11712;51.134;4.156;2022-10-31T01:36:35;13.60;99.90
23087;DHT22;11712;51.134;4.156;2022-10-31T01:39:04;13.40;99.90
23087;DHT22;11712;51.134;4.156;2022-10-31T01:41:34;13.40;99.90
23087;DHT22;11712;51.134;4.156;2022-10-31T01:51:58;13.30;99.90
23087;DHT22;11712;51.134;4.156;2022-10-31T01:54:29;13.30;99.90
23087;DHT22;11712;51.134;4.156;2022-10-31T01:56:57;13.20;99.90
23087;DHT22;11712;51.134;4.156;2022-10-31T01:59:27;13.10;99.90
23087;DHT22;11712;51.134;4.156;2022-10-31T02:01:55;13.10;99.90
23087;DHT22;11712;51.134;4.156;2022-10-31T02:04:23;13.10;99.90
23087;DHT22;11712;51.134;4.156;2022-10-31T02:07:00;13.10;99.90
23087;DHT22;11712;51.134;4.156;2022-10-31T02:09:29;13.20;99.90
23087;DHT22;11712;51.134;4.156;2022-10-31T02:11:57;13.00;99.90
23087;DHT22;11712;51.134;4.156;2022-10-31T02:14:26;13.20;99.90
23087;DHT22;11712;51.134;4.156;2022-10-31T02:16:56;13.30;99.90
23087;DHT22;11712;51.134;4.156;2022-10-31T02:19:30;13.20;99.90
23087;DHT22;11712;51.134;4.156;2022-10-31T02:22:05;13.20;99.90
23087;DHT22;11712;51.134;4.156;2022-10-31T02:33:25;12.40;99.90
23087;DHT22;11712;51.134;4.156;2022-10-31T02:36:09;12.50;99.90
23087;DHT22;11712;51.134;4.156;2022-10-31T02:39:10;12.60;99.90
23087;DHT22;11712;51.134;4.156;2022-10-31T02:41:46;12.70;99.90
23087;DHT22;11712;51.134;4.156;2022-10-31T02:44:30;12.80;99.90
23087;DHT22;11712;51.134;4.156;2022-10-31T02:47:08;12.40;99.90
23087;DHT22;11712;51.134;4.156;2022-10-31T02:50:08;12.20;99.90
23087;DHT22;11712;51.134;4.156;2022-10-31T02:52:35;12.20;99.90
23087;DHT22;11712;51.134;4.156;2022-10-31T02:57:48;12.40;99.90
23087;DHT22;11712;51.134;4.156;2022-10-31T03:00:15;12.50;99.90
23087;DHT22;11712;51.134;4.156;2022-10-31T03:08:24;12.60;99.90
23087;DHT22;11712;51.134;4.156;2022-10-31T03:11:06;12.70;99.90
23087;DHT22;11712;51.134;4.156;2022-10-31T03:13:50;12.80;99.90
23087;DHT22;11712;51.134;4.156;2022-10-31T03:16:45;12.70;99.90
23087;DHT22;11712;51.134;4.156;2022-10-31T03:21:53;12.50;99.90
23087;DHT22;11712;51.134;4.156;2022-10-31T03:24:20;12.60;99.90
23087;DHT22;11712;51.134;4.156;2022-10-31T03:26:50;12.60;99.90
23087;DHT22;11712;51.134;4.156;2022-10-31T03:29:22;12.60;99.90
23087;DHT22;11712;51.134;4.156;2022-10-31T03:31:54;12.60;99.90
23087;DHT22;11712;51.134;4.156;2022-10-31T03:34:21;12.50;99.90
23087;DHT22;11712;51.134;4.156;2022-10-31T03:36:50;12.30;99.90
23087;DHT22;11712;51.134;4.156;2022-10-31T03:39:19;12.00;99.90
23087;DHT22;11712;51.134;4.156;2022-10-31T03:41:53;11.80;99.90
23087;DHT22;11712;51.134;4.156;2022-10-31T03:44:21;11.80;99.90
23087;DHT22;11712;51.134;4.156;2022-10-31T03:46:47;11.80;99.90
23087;DHT22;11712;51.134;4.156;2022-10-31T03:49:14;11.80;99.90
23087;DHT22;11712;51.134;4.156;2022-10-31T03:51:55;11.80;99.90
23087;DHT22;11712;51.134;4.156;2022-10-31T03:57:38;11.80;99.90
23087;DHT22;11712;51.134;4.156;2022-10-31T04:00:11;11.80;99.90
23087;DHT22;11712;51.134;4.156;2022-10-31T04:02:40;11.90;99.90
23087;DHT22;11712;51.134;4.156;2022-10-31T04:05:07;11.80;99.90
23087;DHT22;11712;51.134;4.156;2022-10-31T04:07:37;12.00;99.90
23087;DHT22;11712;51.134;4.156;2022-10-31T04:10:07;11.90;99.90
23087;DHT22;11712;51.134;4.156;2022-10-31T04:12:36;11.80;99.90
23087;DHT22;11712;51.134;4.156;2022-10-31T04:15:05;11.90;99.90
23087;DHT22;11712;51.134;4.156;2022-10-31T04:17:34;12.00;99.90
23087;DHT22;11712;51.134;4.156;2022-10-31T04:20:01;12.10;99.90
23087;DHT22;11712;51.134;4.156;2022-10-31T04:22:27;12.20;99.90
23087;DHT22;11712;51.134;4.156;2022-10-31T04:24:53;12.20;99.90
23087;DHT22;11712;51.134;4.156;2022-10-31T04:27:18;12.20;99.90
23087;DHT22;11712;51.134;4.156;2022-10-31T04:29:44;12.20;99.90
23087;DHT22;11712;51.134;4.156;2022-10-31T04:32:10;12.30;99.90
23087;DHT22;11712;51.134;4.156;2022-10-31T04:34:35;12.20;99.90
23087;DHT22;11712;51.134;4.156;2022-10-31T04:37:01;12.20;99.90
23087;DHT22;11712;51.134;4.156;2022-10-31T04:39:26;12.20;99.90
23087;DHT22;11712;51.134;4.156;2022-10-31T04:41:52;12.20;99.90
23087;DHT22;11712;51.134;4.156;2022-10-31T04:44:18;12.10;99.90
23087;DHT22;11712;51.134;4.156;2022-10-31T04:46:43;12.10;99.90
23087;DHT22;11712;51.134;4.156;2022-10-31T04:49:09;12.10;99.90
23087;DHT22;11712;51.134;4.156;2022-10-31T04:51:35;12.10;99.90
23087;DHT22;11712;51.134;4.156;2022-10-31T04:54:00;12.10;99.90
23087;DHT22;11712;51.134;4.156;2022-10-31T04:56:26;12.10;99.90
23087;DHT22;11712;51.134;4.156;2022-10-31T04:58:52;12.00;99.90
23087;DHT22;11712;51.134;4.156;2022-10-31T05:01:17;12.00;99.90
23087;DHT22;11712;51.134;4.156;2022-10-31T05:03:43;12.00;99.90
23087;DHT22;11712;51.134;4.156;2022-10-31T05:06:09;12.00;99.90
23087;DHT22;11712;51.134;4.156;2022-10-31T05:08:34;12.00;99.90
23087;DHT22;11712;51.134;4.156;2022-10-31T05:11:01;11.90;99.90
23087;DHT22;11712;51.134;4.156;2022-10-31T05:13:27;11.80;99.90
23087;DHT22;11712;51.134;4.156;2022-10-31T05:15:53;11.90;99.90
23087;DHT22;11712;51.134;4.156;2022-10-31T05:18:19;11.80;99.90
23087;DHT22;11712;51.134;4.156;2022-10-31T05:20:45;11.80;99.90
23087;DHT22;11712;51.134;4.156;2022-10-31T05:23:10;11.60;99.90
23087;DHT22;11712;51.134;4.156;2022-10-31T05:25:36;11.60;99.90
23087;DHT22;11712;51.134;4.156;2022-10-31T05:28:02;11.60;99.90
23087;DHT22;11712;51.134;4.156;2022-10-31T05:30:29;11.50;99.90
23087;DHT22;11712;51.134;4.156;2022-10-31T05:32:55;11.50;99.90
23087;DHT22;11712;51.134;4.156;2022-10-31T05:35:30;11.60;99.90
23087;DHT22;11712;51.134;4.156;2022-10-31T05:37:56;11.60;99.90
23087;DHT22;11712;51.134;4.156;2022-10-31T05:40:23;11.60;99.90
23087;DHT22;11712;51.134;4.156;2022-10-31T05:42:53;11.70;99.90
23087;DHT22;11712;51.134;4.156;2022-10-31T05:45:20;11.70;99.90
23087;DHT22;11712;51.134;4.156;2022-10-31T05:48:04;11.70;99.90
23087;DHT22;11712;51.134;4.156;2022-10-31T05:50:31;11.80;99.90
23087;DHT22;11712;51.134;4.156;2022-10-31T05:52:59;11.80;99.90
23087;DHT22;11712;51.134;4.156;2022-10-31T05:55:25;11.80;99.90
23087;DHT22;11712;51.134;4.156;2022-10-31T05:57:52;11.80;99.90
23087;DHT22;11712;51.134;4.156;2022-10-31T06:00:18;12.00;99.90
23087;DHT22;11712;51.134;4.156;2022-10-31T06:02:44;12.00;99.90
23087;DHT22;11712;51.134;4.156;2022-10-31T06:05:10;12.20;99.90
23087;DHT22;11712;51.134;4.156;2022-10-31T06:07:36;12.10;99.90
23087;DHT22;11712;51.134;4.156;2022-10-31T06:10:04;12.10;99.90
23087;DHT22;11712;51.134;4.156;2022-10-31T06:12:30;12.10;99.90
23087;DHT22;11712;51.134;4.156;2022-10-31T06:14:56;12.10;99.90
23087;DHT22;11712;51.134;4.156;2022-10-31T06:17:22;12.20;99.90
23087;DHT22;11712;51.134;4.156;2022-10-31T06:19:48;12.20;99.90
23087;DHT22;11712;51.134;4.156;2022-10-31T06:22:13;12.10;99.90
23087;DHT22;11712;51.134;4.156;2022-10-31T06:24:39;12.20;99.90
23087;DHT22;11712;51.134;4.156;2022-10-31T06:27:05;12.30;99.90
23087;DHT22;11712;51.134;4.156;2022-10-31T06:29:31;12.40;99.90
23087;DHT22;11712;51.134;4.156;2022-10-31T06:31:57;12.50;99.90
23087;DHT22;11712;51.134;4.156;2022-10-31T06:34:22;12.60;99.90
23087;DHT22;11712;51.134;4.156;2022-10-31T06:36:48;12.60;99.90
23087;DHT22;11712;51.134;4.156;2022-10-31T06:39:14;12.70;99.90
23087;DHT22;11712;51.134;4.156;2022-10-31T06:41:40;12.70;99.90
23087;DHT22;11712;51.134;4.156;2022-10-31T06:44:07;12.70;99.90
23087;DHT22;11712;51.134;4.156;2022-10-31T06:46:33;12.80;99.90
23087;DHT22;11712;51.134;4.156;2022-10-31T06:48:59;12.70;99.90
23087;DHT22;11712;51.134;4.156;2022-10-31T06:51:24;12.70;99.90
23087;DHT22;11712;51.134;4.156;2022-10-31T06:53:50;12.80;99.90
23087;DHT22;11712;51.134;4.156;2022-10-31T06:56:16;12.80;99.90
23087;DHT22;11712;51.134;4.156;2022-10-31T06:58:42;12.90;99.90
23087;DHT22;11712;51.134;4.156;2022-10-31T07:01:07;13.10;99.90
23087;DHT22;11712;51.134;4.156;2022-10-31T07:03:33;13.10;99.90
23087;DHT22;11712;51.134;4.156;2022-10-31T07:05:59;13.10;99.90
23087;DHT22;11712;51.134;4.156;2022-10-31T07:08:25;13.10;99.90
23087;DHT22;11712;51.134;4.156;2022-10-31T07:10:52;13.00;99.90
23087;DHT22;11712;51.134;4.156;2022-10-31T07:13:19;13.00;99.90
23087;DHT22;11712;51.134;4.156;2022-10-31T07:15:50;13.10;99.90
23087;DHT22;11712;51.134;4.156;2022-10-31T07:18:16;13.10;99.90
23087;DHT22;11712;51.134;4.156;2022-10-31T07:20:41;13.10;99.90
23087;DHT22;11712;51.134;4.156;2022-10-31T07:23:09;13.20;99.90
23087;DHT22;11712;51.134;4.156;2022-10-31T07:25:35;13.30;99.90
23087;DHT22;11712;51.134;4.156;2022-10-31T07:28:01;13.20;99.90
23087;DHT22;11712;51.134;4.156;2022-10-31T07:30:27;13.30;99.90
23087;DHT22;11712;51.134;4.156;2022-10-31T07:32:52;13.30;99.90
23087;DHT22;11712;51.134;4.156;2022-10-31T07:35:20;13.30;99.90
23087;DHT22;11712;51.134;4.156;2022-10-31T07:37:47;13.30;99.90
23087;DHT22;11712;51.134;4.156;2022-10-31T07:40:13;13.40;99.90
23087;DHT22;11712;51.134;4.156;2022-10-31T07:42:40;13.50;99.90
23087;DHT22;11712;51.134;4.156;2022-10-31T07:45:09;13.60;99.90
23087;DHT22;11712;51.134;4.156;2022-10-31T07:50:04;13.70;99.90
23087;DHT22;11712;51.134;4.156;2022-10-31T07:52:30;13.90;99.90
23087;DHT22;11712;51.134;4.156;2022-10-31T07:54:56;14.00;99.90
23087;DHT22;11712;51.134;4.156;2022-10-31T07:57:21;13.90;99.90
23087;DHT22;11712;51.134;4.156;2022-10-31T07:59:47;14.00;99.90
23087;DHT22;11712;51.134;4.156;2022-10-31T08:02:13;14.00;99.90
23087;DHT22;11712;51.134;4.156;2022-10-31T08:04:38;13.90;99.90
23087;DHT22;11712;51.134;4.156;2022-10-31T08:07:04;14.00;99.90
23087;DHT22;11712;51.134;4.156;2022-10-31T08:09:30;13.90;99.90
23087;DHT22;11712;51.134;4.156;2022-10-31T08:11:55;13.80;99.90
23087;DHT22;11712;51.134;4.156;2022-10-31T08:14:21;13.80;99.90
23087;DHT22;11712;51.134;4.156;2022-10-31T08:16:47;13.80;99.90
23087;DHT22;11712;51.134;4.156;2022-10-31T08:19:13;13.90;99.90
23087;DHT22;11712;51.134;4.156;2022-10-31T08:21:39;14.10;99.90
23087;DHT22;11712;51.134;4.156;2022-10-31T08:24:05;14.00;99.90
23087;DHT22;11712;51.134;4.156;2022-10-31T08:26:31;13.90;99.90
23087;DHT22;11712;51.134;4.156;2022-10-31T08:28:58;13.90;99.90
23087;DHT22;11712;51.134;4.156;2022-10-31T08:31:24;14.00;99.90
23087;DHT22;11712;51.134;4.156;2022-10-31T08:33:52;14.00;99.90
23087;DHT22;11712;51.134;4.156;2022-10-31T08:36:18;14.10;99.90
23087;DHT22;11712;51.134;4.156;2022-10-31T08:38:45;14.30;99.90
23087;DHT22;11712;51.134;4.156;2022-10-31T08:41:11;14.60;99.90
23087;DHT22;11712;51.134;4.156;2022-10-31T08:43:37;14.50;99.90
23087;DHT22;11712;51.134;4.156;2022-10-31T08:46:02;14.50;99.90
23087;DHT22;11712;51.134;4.156;2022-10-31T08:48:28;14.40;99.90
23087;DHT22;11712;51.134;4.156;2022-10-31T08:50:56;14.40;99.90
23087;DHT22;11712;51.134;4.156;2022-10-31T08:53:23;14.40;99.90
23087;DHT22;11712;51.134;4.156;2022-10-31T08:55:49;14.50;99.90
23087;DHT22;11712;51.134;4.156;2022-10-31T08:58:17;14.40;99.90
23087;DHT22;11712;51.134;4.156;2022-10-31T09:00:44;14.30;99.90
23087;DHT22;11712;51.134;4.156;2022-10-31T09:03:12;14.20;99.90
23087;DHT22;11712;51.134;4.156;2022-10-31T09:05:38;14.30;99.90
23087;DHT22;11712;51.134;4.156;2022-10-31T09:08:05;14.30;99.90
23087;DHT22;11712;51.134;4.156;2022-10-31T09:10:33;14.30;99.90
23087;DHT22;11712;51.134;4.156;2022-10-31T09:13:07;14.30;99.90
23087;DHT22;11712;51.134;4.156;2022-10-31T09:15:35;14.30;99.90
23087;DHT22;11712;51.134;4.156;2022-10-31T09:18:01;14.30;99.90
23087;DHT22;11712;51.134;4.156;2022-10-31T09:20:28;14.40;99.90
23087;DHT22;11712;51.134;4.156;2022-10-31T09:22:58;14.70;99.90
23087;DHT22;11712;51.134;4.156;2022-10-31T09:25:25;14.80;99.90
23087;DHT22;11712;51.134;4.156;2022-10-31T09:27:50;14.90;99.90
23087;DHT22;11712;51.134;4.156;2022-10-31T09:30:16;15.10;99.90
23087;DHT22;11712;51.134;4.156;2022-10-31T09:32:42;15.10;99.90
23087;DHT22;11712;51.134;4.156;2022-10-31T09:35:08;15.10;99.90
23087;DHT22;11712;51.134;4.156;2022-10-31T09:37:33;15.30;99.90
23087;DHT22;11712;51.134;4.156;2022-10-31T09:39:59;15.20;99.90
23087;DHT22;11712;51.134;4.156;2022-10-31T09:49:12;15.10;99.90
23087;DHT22;11712;51.134;4.156;2022-10-31T09:51:28;15.30;99.90
23087;DHT22;11712;51.134;4.156;2022-10-31T09:54:20;15.30;99.90
23087;DHT22;11712;51.134;4.156;2022-10-31T09:56:46;15.10;99.90
23087;DHT22;11712;51.134;4.156;2022-10-31T09:59:20;15.10;99.90
23087;DHT22;11712;51.134;4.156;2022-10-31T10:01:54;15.20;99.90
23087;DHT22;11712;51.134;4.156;2022-10-31T10:06:59;15.50;99.90
23087;DHT22;11712;51.134;4.156;2022-10-31T10:09:28;15.60;99.90
23087;DHT22;11712;51.134;4.156;2022-10-31T10:17:38;15.70;99.90
23087;DHT22;11712;51.134;4.156;2022-10-31T10:23:08;15.50;99.90
23087;DHT22;11712;51.134;4.156;2022-10-31T10:25:40;15.40;99.90
23087;DHT22;11712;51.134;4.156;2022-10-31T10:28:37;15.30;99.90
23087;DHT22;11712;51.134;4.156;2022-10-31T10:34:06;15.20;99.90
23087;DHT22;11712;51.134;4.156;2022-10-31T10:36:40;15.20;99.90
23087;DHT22;11712;51.134;4.156;2022-10-31T10:39:17;15.20;99.90
23087;DHT22;11712;51.134;4.156;2022-10-31T10:41:47;15.30;99.90
23087;DHT22;11712;51.134;4.156;2022-10-31T10:44:32;15.30;99.90
23087;DHT22;11712;51.134;4.156;2022-10-31T10:47:16;15.30;99.90
23087;DHT22;11712;51.134;4.156;2022-10-31T10:50:39;15.40;99.90
23087;DHT22;11712;51.134;4.156;2022-10-31T10:53:02;15.60;99.90
23087;DHT22;11712;51.134;4.156;2022-10-31T10:55:55;15.70;99.90
23087;DHT22;11712;51.134;4.156;2022-10-31T10:58:22;15.80;99.90
23087;DHT22;11712;51.134;4.156;2022-10-31T11:00:48;15.90;99.90
23087;DHT22;11712;51.134;4.156;2022-10-31T11:03:16;16.10;99.90
23087;DHT22;11712;51.134;4.156;2022-10-31T11:05:54;16.30;99.90
23087;DHT22;11712;51.134;4.156;2022-10-31T11:08:34;16.40;99.90
23087;DHT22;11712;51.134;4.156;2022-10-31T11:13:44;16.40;99.90
23087;DHT22;11712;51.134;4.156;2022-10-31T11:16:32;16.50;99.90
23087;DHT22;11712;51.134;4.156;2022-10-31T11:21:46;16.50;99.90
23087;DHT22;11712;51.134;4.156;2022-10-31T11:24:19;16.60;99.90
23087;DHT22;11712;51.134;4.156;2022-10-31T11:26:49;16.70;99.90
23087;DHT22;11712;51.134;4.156;2022-10-31T11:29:25;16.60;99.90
23087;DHT22;11712;51.134;4.156;2022-10-31T11:31:56;16.70;99.90
23087;DHT22;11712;51.134;4.156;2022-10-31T11:34:36;16.50;99.90
23087;DHT22;11712;51.134;4.156;2022-10-31T11:37:23;16.40;99.90
23087;DHT22;11712;51.134;4.156;2022-10-31T11:39:53;16.30;99.90
23087;DHT22;11712;51.134;4.156;2022-10-31T11:42:44;16.50;99.90
23087;DHT22;11712;51.134;4.156;2022-10-31T11:45:35;16.30;99.90
23087;DHT22;11712;51.134;4.156;2022-10-31T11:48:12;16.40;99.90
23087;DHT22;11712;51.134;4.156;2022-10-31T11:50:41;16.40;99.90
23087;DHT22;11712;51.134;4.156;2022-10-31T11:53:29;16.50;99.90
23087;DHT22;11712;51.134;4.156;2022-10-31T11:56:15;16.50;99.90
23087;DHT22;11712;51.134;4.156;2022-10-31T11:58:42;16.60;99.90
23087;DHT22;11712;51.134;4.156;2022-10-31T12:01:32;16.60;99.90
23087;DHT22;11712;51.134;4.156;2022-10-31T12:04:08;16.60;99.90
23087;DHT22;11712;51.134;4.156;2022-10-31T12:06:36;16.60;99.90
23087;DHT22;11712;51.134;4.156;2022-10-31T12:38:55;16.90;99.90
23087;DHT22;11712;51.134;4.156;2022-10-31T12:41:53;16.90;99.90
23087;DHT22;11712;51.134;4.156;2022-10-31T12:55:50;17.40;99.90
23087;DHT22;11712;51.134;4.156;2022-10-31T12:58:22;17.50;99.90
23087;DHT22;11712;51.134;4.156;2022-10-31T13:00:55;17.60;99.90
23087;DHT22;11712;51.134;4.156;2022-10-31T13:03:37;17.70;99.90
23087;DHT22;11712;51.134;4.156;2022-10-31T13:06:09;17.80;99.90
23087;DHT22;11712;51.134;4.156;2022-10-31T13:09:02;17.90;99.90
23087;DHT22;11712;51.134;4.156;2022-10-31T13:11:46;17.70;99.90
23087;DHT22;11712;51.134;4.156;2022-10-31T13:14:34;17.80;99.90
23087;DHT22;11712;51.134;4.156;2022-10-31T13:17:02;17.90;99.90
23087;DHT22;11712;51.134;4.156;2022-10-31T13:19:34;18.00;99.90
23087;DHT22;11712;51.134;4.156;2022-10-31T13:22:06;18.10;99.90
23087;DHT22;11712;51.134;4.156;2022-10-31T13:24:36;18.00;99.90
23087;DHT22;11712;51.134;4.156;2022-10-31T13:27:15;18.20;99.90
23087;DHT22;11712;51.134;4.156;2022-10-31T13:29:56;18.10;99.90
23087;DHT22;11712;51.134;4.156;2022-10-31T13:32:26;18.10;99.90
23087;DHT22;11712;51.134;4.156;2022-10-31T13:34:56;18.10;99.90
23087;DHT22;11712;51.134;4.156;2022-10-31T13:37:47;18.00;99.90
23087;DHT22;11712;51.134;4.156;2022-10-31T13:41:10;18.00;99.90
23087;DHT22;11712;51.134;4.156;2022-10-31T13:45:54;18.00;99.90
23087;DHT22;11712;51.134;4.156;2022-10-31T13:48:39;18.10;99.90
23087;DHT22;11712;51.134;4.156;2022-10-31T13:51:09;18.20;99.90
23087;DHT22;11712;51.134;4.156;2022-10-31T13:58:34;18.00;99.90
23087;DHT22;11712;51.134;4.156;2022-10-31T14:01:24;17.90;99.90
23087;DHT22;11712;51.134;4.156;2022-10-31T14:04:14;18.10;99.90
23087;DHT22;11712;51.134;4.156;2022-10-31T14:11:53;18.00;99.90
23087;DHT22;11712;51.134;4.156;2022-10-31T14:14:20;17.90;99.90
23087;DHT22;11712;51.134;4.156;2022-10-31T14:16:54;17.90;99.90
23087;DHT22;11712;51.134;4.156;2022-10-31T14:19:21;17.90;99.90
23087;DHT22;11712;51.134;4.156;2022-10-31T14:21:48;18.00;99.90
23087;DHT22;11712;51.134;4.156;2022-10-31T14:29:49;18.30;99.90
23087;DHT22;11712;51.134;4.156;2022-10-31T14:32:21;18.50;99.90
23087;DHT22;11712;51.134;4.156;2022-10-31T14:34:55;18.50;99.90
23087;DHT22;11712;51.134;4.156;2022-10-31T14:40:17;18.70;99.90
23087;DHT22;11712;51.134;4.156;2022-10-31T14:50:52;18.50;99.90
23087;DHT22;11712;51.134;4.156;2022-10-31T14:53:19;18.60;99.90
23087;DHT22;11712;51.134;4.156;2022-10-31T14:55:49;18.60;99.90
23087;DHT22;11712;51.134;4.156;2022-10-31T14:58:41;18.70;99.90
23087;DHT22;11712;51.134;4.156;2022-10-31T15:01:28;19.10;99.90
23087;DHT22;11712;51.134;4.156;2022-10-31T15:04:02;19.00;99.90
23087;DHT22;11712;51.134;4.156;2022-10-31T15:06:36;19.20;99.90
23087;DHT22;11712;51.134;4.156;2022-10-31T15:09:04;19.10;99.90
23087;DHT22;11712;51.134;4.156;2022-10-31T15:11:37;19.10;99.90
23087;DHT22;11712;51.134;4.156;2022-10-31T15:14:22;19.10;99.90
23087;DHT22;11712;51.134;4.156;2022-10-31T15:16:48;19.20;99.90
23087;DHT22;11712;51.134;4.156;2022-10-31T15:19:20;19.10;99.90
23087;DHT22;11712;51.134;4.156;2022-10-31T15:21:46;18.90;99.90
23087;DHT22;11712;51.134;4.156;2022-10-31T15:24:15;18.80;99.90
23087;DHT22;11712;51.134;4.156;2022-10-31T15:26:45;18.60;99.90
23087;DHT22;11712;51.134;4.156;2022-10-31T15:29:19;18.40;99.90
23087;DHT22;11712;51.134;4.156;2022-10-31T15:31:55;18.30;99.90
23087;DHT22;11712;51.134;4.156;2022-10-31T15:34:42;18.10;99.90
23087;DHT22;11712;51.134;4.156;2022-10-31T15:37:14;18.10;99.90
23087;DHT22;11712;51.134;4.156;2022-10-31T15:39:44;18.00;99.90
23087;DHT22;11712;51.134;4.156;2022-10-31T15:42:30;18.10;99.90
23087;DHT22;11712;51.134;4.156;2022-10-31T15:47:38;18.00;99.90
23087;DHT22;11712;51.134;4.156;2022-10-31T15:50:22;18.00;99.90
23087;DHT22;11712;51.134;4.156;2022-10-31T15:52:50;18.00;99.90
23087;DHT22;11712;51.134;4.156;2022-10-31T15:55:25;18.00;99.90
23087;DHT22;11712;51.134;4.156;2022-10-31T15:57:56;18.10;99.90
23087;DHT22;11712;51.134;4.156;2022-10-31T16:00:27;18.00;99.90
23087;DHT22;11712;51.134;4.156;2022-10-31T16:05:49;18.00;99.90
23087;DHT22;11712;51.134;4.156;2022-10-31T16:13:38;17.80;99.90
23087;DHT22;11712;51.134;4.156;2022-10-31T16:16:16;17.70;99.90
23087;DHT22;11712;51.134;4.156;2022-10-31T16:18:43;17.70;99.90
23087;DHT22;11712;51.134;4.156;2022-10-31T16:21:09;17.60;99.90
23087;DHT22;11712;51.134;4.156;2022-10-31T16:23:37;17.40;99.90
23087;DHT22;11712;51.134;4.156;2022-10-31T16:26:07;17.30;99.90
23087;DHT22;11712;51.134;4.156;2022-10-31T16:28:33;17.20;99.90
23087;DHT22;11712;51.134;4.156;2022-10-31T16:30:59;17.20;99.90
23087;DHT22;11712;51.134;4.156;2022-10-31T16:33:32;17.10;99.90
23087;DHT22;11712;51.134;4.156;2022-10-31T16:38:55;17.10;99.90
23087;DHT22;11712;51.134;4.156;2022-10-31T16:41:21;17.10;99.90
23087;DHT22;11712;51.134;4.156;2022-10-31T16:43:48;17.00;99.90
23087;DHT22;11712;51.134;4.156;2022-10-31T16:46:25;17.00;99.90
23087;DHT22;11712;51.134;4.156;2022-10-31T16:48:51;17.00;99.90
23087;DHT22;11712;51.134;4.156;2022-10-31T16:51:17;17.00;99.90
23087;DHT22;11712;51.134;4.156;2022-10-31T16:53:43;16.80;99.90
23087;DHT22;11712;51.134;4.156;2022-10-31T16:56:29;16.60;99.90
23087;DHT22;11712;51.134;4.156;2022-10-31T16:58:55;16.70;99.90
23087;DHT22;11712;51.134;4.156;2022-10-31T17:01:21;16.60;99.90
23087;DHT22;11712;51.134;4.156;2022-10-31T17:03:47;16.70;99.90
23087;DHT22;11712;51.134;4.156;2022-10-31T17:06:13;16.70;99.90
23087;DHT22;11712;51.134;4.156;2022-10-31T17:08:39;16.60;99.90
23087;DHT22;11712;51.134;4.156;2022-10-31T17:11:05;16.60;99.90
23087;DHT22;11712;51.134;4.156;2022-10-31T17:13:34;16.70;99.90
23087;DHT22;11712;51.134;4.156;2022-10-31T17:16:02;16.70;99.90
23087;DHT22;11712;51.134;4.156;2022-10-31T17:18:28;16.70;99.90
23087;DHT22;11712;51.134;4.156;2022-10-31T17:20:58;16.70;99.90
23087;DHT22;11712;51.134;4.156;2022-10-31T17:23:24;16.70;99.90
23087;DHT22;11712;51.134;4.156;2022-10-31T17:25:50;16.70;99.90
23087;DHT22;11712;51.134;4.156;2022-10-31T17:28:16;16.60;99.90
23087;DHT22;11712;51.134;4.156;2022-10-31T17:30:42;16.60;99.90
23087;DHT22;11712;51.134;4.156;2022-10-31T17:33:11;16.60;99.90
23087;DHT22;11712;51.134;4.156;2022-10-31T17:35:37;16.60;99.90
23087;DHT22;11712;51.134;4.156;2022-10-31T17:38:02;16.50;99.90
23087;DHT22;11712;51.134;4.156;2022-10-31T17:40:28;16.40;99.90
23087;DHT22;11712;51.134;4.156;2022-10-31T17:42:56;16.40;99.90
23087;DHT22;11712;51.134;4.156;2022-10-31T17:45:24;16.40;99.90
23087;DHT22;11712;51.134;4.156;2022-10-31T17:47:51;16.40;99.90
23087;DHT22;11712;51.134;4.156;2022-10-31T17:50:21;16.40;99.90
23087;DHT22;11712;51.134;4.156;2022-10-31T17:52:48;16.30;99.90
23087;DHT22;11712;51.134;4.156;2022-10-31T17:55:14;16.30;99.90
23087;DHT22;11712;51.134;4.156;2022-10-31T17:57:41;16.30;99.90
23087;DHT22;11712;51.134;4.156;2022-10-31T18:00:11;16.30;99.90
23087;DHT22;11712;51.134;4.156;2022-10-31T18:02:37;16.30;99.90
23087;DHT22;11712;51.134;4.156;2022-10-31T18:05:04;16.20;99.90
23087;DHT22;11712;51.134;4.156;2022-10-31T18:07:31;16.20;99.90
23087;DHT22;11712;51.134;4.156;2022-10-31T18:09:57;16.20;99.90
23087;DHT22;11712;51.134;4.156;2022-10-31T18:12:23;16.20;99.90